Time;durP1;ratioP1;P1;durP2;ratioP2;P2;SDS_P1;SDS_P2;PMS_P1;PMS_P2;Temp;Humidity;BMP_temperature;BMP_pressure;BME280_temperature;BME280_humidity;BME280_pressure;Samples;Min_cycle;Max_cycle;Signal;HPM_P1;HPM_P2
2021/09/08 00:00:35;;;;;;;11.95;9.20;;;;;;;-142.25;100.00;58004.16;5054922;28;20433;-58
2021/09/08 00:03:01;;;;;;;13.55;9.50;;;;;;;-142.25;100.00;58004.16;5053804;28;20064;-60
2021/09/08 00:05:28;;;;;;;12.90;9.75;;;;;;;-142.25;100.00;58004.16;5054446;28;20061;-58
2021/09/08 00:07:53;;;;;;;15.88;10.60;;;;;;;-142.25;100.00;58004.16;5054228;28;20488;-60
2021/09/08 00:10:18;;;;;;;13.82;9.20;;;;;;;-142.25;100.00;58004.16;5055633;28;20029;-57
2021/09/08 00:12:44;;;;;;;11.80;9.68;;;;;;;-142.25;100.00;58004.16;5070083;28;20131;-59
2021/09/08 00:15:11;;;;;;;13.38;10.07;;;;;;;-142.25;100.00;58004.16;5052855;28;20081;-60
2021/09/08 00:17:37;;;;;;;13.63;10.13;;;;;;;-142.25;100.00;58004.16;5055286;28;20176;-57
2021/09/08 00:20:04;;;;;;;16.08;10.30;;;;;;;-142.25;100.00;58004.16;5055454;28;20400;-60
2021/09/08 00:22:30;;;;;;;13.93;10.40;;;;;;;-142.25;100.00;58004.16;5055807;28;20075;-59
2021/09/08 00:24:55;;;;;;;15.35;11.45;;;;;;;-142.25;100.00;58004.16;5055054;28;20127;-59
2021/09/08 00:27:21;;;;;;;10.70;9.20;;;;;;;-142.25;100.00;58004.16;5054773;28;20036;-58
2021/09/08 00:29:46;;;;;;;13.85;9.38;;;;;;;-142.25;100.00;58004.16;5052766;28;20110;-57
2021/09/08 00:32:12;;;;;;;14.35;10.77;;;;;;;-142.25;100.00;58004.16;5052823;28;20385;-55
2021/09/08 00:34:37;;;;;;;15.13;10.52;;;;;;;-142.25;100.00;58004.16;5053511;28;20032;-59
2021/09/08 00:37:03;;;;;;;13.82;10.70;;;;;;;-142.25;100.00;58004.16;5055639;28;20596;-61
2021/09/08 00:39:28;;;;;;;13.00;9.32;;;;;;;-142.25;100.00;58004.16;5055705;28;20038;-60
2021/09/08 00:41:54;;;;;;;20.35;11.65;;;;;;;-142.25;100.00;58004.16;5058113;28;20036;-59
2021/09/08 00:44:19;;;;;;;13.52;10.07;;;;;;;-142.25;100.00;58004.16;5057701;28;20036;-60
2021/09/08 00:46:45;;;;;;;12.43;9.45;;;;;;;-142.25;100.00;58004.16;5057626;28;20483;-61
2021/09/08 00:49:11;;;;;;;13.40;9.43;;;;;;;-142.25;100.00;58004.16;5057830;28;20037;-60
2021/09/08 00:51:38;;;;;;;11.73;9.43;;;;;;;-142.25;100.00;58004.16;5057980;28;20044;-59
2021/09/08 00:54:10;;;;;;;12.70;9.65;;;;;;;-142.25;100.00;58004.16;5059475;28;20481;-59
2021/09/08 00:56:36;;;;;;;12.73;9.20;;;;;;;-142.25;100.00;58004.16;5057692;28;20032;-61
2021/09/08 00:59:04;;;;;;;12.93;10.10;;;;;;;-142.25;100.00;58004.16;5054279;28;20035;-60
2021/09/08 01:01:29;;;;;;;15.57;10.00;;;;;;;-142.25;100.00;58004.16;5055332;28;20504;-60
2021/09/08 01:03:54;;;;;;;14.90;9.73;;;;;;;-142.25;100.00;58004.16;5051997;28;20121;-58
2021/09/08 01:06:20;;;;;;;12.88;9.73;;;;;;;-142.25;100.00;58004.16;5059184;28;20032;-61
2021/09/08 01:08:46;;;;;;;12.10;8.45;;;;;;;-142.25;100.00;58004.16;5069032;28;20076;-61
2021/09/08 01:11:12;;;;;;;16.58;10.50;;;;;;;-142.25;100.00;58004.16;5057000;28;20477;-59
2021/09/08 01:13:37;;;;;;;20.73;10.80;;;;;;;-142.25;100.00;58004.16;5053355;28;20036;-59
2021/09/08 01:16:03;;;;;;;14.82;10.55;;;;;;;-142.25;100.00;58004.16;5052604;28;20024;-57
2021/09/08 01:18:29;;;;;;;13.13;8.88;;;;;;;-142.25;100.00;58004.16;5052274;28;20036;-58
2021/09/08 01:20:54;;;;;;;14.15;10.40;;;;;;;-142.25;100.00;58004.16;5053773;28;20091;-58
2021/09/08 01:23:20;;;;;;;13.73;9.30;;;;;;;-142.25;100.00;58004.16;5055724;28;20036;-60
2021/09/08 01:25:46;;;;;;;14.88;10.73;;;;;;;-142.25;100.00;58004.16;5053833;28;20181;-61
2021/09/08 01:28:12;;;;;;;11.68;9.23;;;;;;;-142.25;100.00;58004.16;5052226;28;20036;-58
2021/09/08 01:30:41;;;;;;;12.88;9.52;;;;;;;-142.25;100.00;58004.16;5052452;28;20576;-58
2021/09/08 01:33:14;;;;;;;12.65;9.50;;;;;;;-142.25;100.00;58004.16;5052476;28;20048;-58
2021/09/08 01:35:40;;;;;;;14.23;9.65;;;;;;;-142.25;100.00;58004.16;5052501;28;20043;-61
2021/09/08 01:38:07;;;;;;;12.30;9.27;;;;;;;-142.25;100.00;58004.16;5052496;28;20047;-59
2021/09/08 01:40:32;;;;;;;16.30;10.25;;;;;;;-142.25;100.00;58004.16;5053424;28;20433;-57
2021/09/08 01:42:58;;;;;;;15.63;9.70;;;;;;;-142.25;100.00;58004.16;5051950;28;20058;-57
2021/09/08 01:45:24;;;;;;;14.65;10.95;;;;;;;-142.25;100.00;58004.16;5052213;28;20362;-56
2021/09/08 01:47:54;;;;;;;12.25;9.13;;;;;;;-142.25;100.00;58004.16;5051810;28;20090;-55
2021/09/08 01:50:20;;;;;;;13.25;9.52;;;;;;;-142.25;100.00;58004.16;5054167;28;20056;-61
2021/09/08 01:52:45;;;;;;;11.60;9.50;;;;;;;-142.25;100.00;58004.16;5054309;28;20544;-60
2021/09/08 01:55:11;;;;;;;14.48;10.15;;;;;;;-142.25;100.00;58004.16;5053245;28;20031;-58
2021/09/08 01:57:37;;;;;;;15.85;10.15;;;;;;;-142.25;100.00;58004.16;5052945;28;20042;-58
2021/09/08 02:00:04;;;;;;;12.30;9.85;;;;;;;-142.25;100.00;58004.16;5052967;28;20174;-60
2021/09/08 02:02:29;;;;;;;11.52;9.02;;;;;;;-142.25;100.00;58004.16;5050970;28;21157;-58
2021/09/08 02:04:55;;;;;;;15.23;9.65;;;;;;;-142.25;100.00;58004.16;5053650;28;20053;-60
2021/09/08 02:07:20;;;;;;;14.82;10.32;;;;;;;-142.25;100.00;58004.16;5051531;28;20048;-53
2021/09/08 02:09:45;;;;;;;13.02;9.63;;;;;;;-142.25;100.00;58004.16;5053639;28;20025;-58
2021/09/08 02:12:11;;;;;;;14.52;9.93;;;;;;;-142.25;100.00;58004.16;5052448;28;20432;-57
2021/09/08 02:14:36;;;;;;;13.70;10.05;;;;;;;-142.25;100.00;58004.16;5053346;28;20509;-58
2021/09/08 02:17:02;;;;;;;16.50;10.88;;;;;;;-142.25;100.00;58004.16;5050779;28;20029;-59
2021/09/08 02:19:27;;;;;;;14.15;10.50;;;;;;;-142.25;100.00;58004.16;5052277;28;20111;-57
2021/09/08 02:21:53;;;;;;;16.30;10.52;;;;;;;-142.25;100.00;58004.16;5052227;28;20037;-59
2021/09/08 02:24:18;;;;;;;17.48;11.00;;;;;;;-142.25;100.00;58004.16;5051361;28;20087;-57
2021/09/08 02:26:43;;;;;;;15.88;10.27;;;;;;;-142.25;100.00;58004.16;5052347;28;20036;-58
2021/09/08 02:29:12;;;;;;;12.52;9.75;;;;;;;-142.25;100.00;58004.16;5052057;28;20093;-59
2021/09/08 02:31:38;;;;;;;14.70;9.73;;;;;;;-142.25;100.00;58004.16;5051424;28;20055;-59
2021/09/08 02:34:03;;;;;;;13.68;9.98;;;;;;;-142.25;100.00;58004.16;5050809;28;20052;-57
2021/09/08 02:36:29;;;;;;;12.63;9.55;;;;;;;-142.25;100.00;58004.16;5052577;28;20037;-58
2021/09/08 02:38:54;;;;;;;14.77;10.52;;;;;;;-142.25;100.00;58004.16;5052296;28;20039;-59
2021/09/08 02:41:22;;;;;;;14.48;9.98;;;;;;;-142.25;100.00;58004.16;5050744;28;20041;-59
2021/09/08 02:43:48;;;;;;;13.38;9.98;;;;;;;-142.25;100.00;58004.16;5052635;28;20089;-58
2021/09/08 02:46:13;;;;;;;14.68;11.05;;;;;;;-142.25;100.00;58004.16;5052915;28;20457;-59
2021/09/08 02:48:39;;;;;;;13.93;10.43;;;;;;;-142.25;100.00;58004.16;5052316;28;20055;-58
2021/09/08 02:51:04;;;;;;;13.40;9.57;;;;;;;-142.25;100.00;58004.16;5052183;28;20029;-59
2021/09/08 02:53:31;;;;;;;13.15;9.95;;;;;;;-142.25;100.00;58004.16;5053100;28;20045;-62
2021/09/08 02:55:56;;;;;;;12.93;9.82;;;;;;;-142.25;100.00;58004.16;5051529;28;20031;-59
2021/09/08 02:58:22;;;;;;;15.45;10.73;;;;;;;-142.25;100.00;58004.16;5052768;28;20036;-56
2021/09/08 03:00:48;;;;;;;15.68;10.70;;;;;;;-142.25;100.00;58004.16;5052636;28;20040;-58
2021/09/08 03:03:13;;;;;;;16.83;10.82;;;;;;;-142.25;100.00;58004.16;5052420;28;20032;-57
2021/09/08 03:05:39;;;;;;;13.00;10.35;;;;;;;-142.25;100.00;58004.16;5052457;28;20473;-61
2021/09/08 03:08:04;;;;;;;19.45;10.63;;;;;;;-142.25;100.00;58004.16;5052121;28;20033;-61
2021/09/08 03:10:31;;;;;;;14.40;11.27;;;;;;;-142.25;100.00;58004.16;5052672;28;20049;-59
2021/09/08 03:12:57;;;;;;;18.55;10.35;;;;;;;-142.25;100.00;58004.16;5053491;28;20063;-59
2021/09/08 03:15:22;;;;;;;13.52;9.90;;;;;;;-142.25;100.00;58004.16;5049466;28;20064;-60
2021/09/08 03:17:48;;;;;;;14.00;9.68;;;;;;;-142.25;100.00;58004.16;5051319;28;20063;-60
2021/09/08 03:20:14;;;;;;;14.82;9.43;;;;;;;-142.25;100.00;58004.16;5050998;28;20037;-59
2021/09/08 03:22:40;;;;;;;15.70;10.52;;;;;;;-142.25;100.00;58004.16;5070630;28;20052;-59
2021/09/08 03:25:07;;;;;;;14.38;10.23;;;;;;;-142.25;100.00;58004.16;5055573;28;20424;-59
2021/09/08 03:27:32;;;;;;;14.48;10.48;;;;;;;-142.25;100.00;58004.16;5052385;28;20388;-54
2021/09/08 03:29:58;;;;;;;16.30;10.55;;;;;;;-142.25;100.00;58004.16;5058007;28;20033;-61
2021/09/08 03:32:23;;;;;;;16.35;9.88;;;;;;;-142.25;100.00;58004.16;5054747;28;20044;-57
2021/09/08 03:34:49;;;;;;;14.38;9.68;;;;;;;-142.25;100.00;58004.16;5054756;28;20538;-60
2021/09/08 03:37:14;;;;;;;12.82;9.35;;;;;;;-142.25;100.00;58004.16;5055343;28;20024;-59
2021/09/08 03:39:39;;;;;;;11.85;9.43;;;;;;;-142.25;100.00;58004.16;5056351;28;20502;-57
2021/09/08 03:42:05;;;;;;;14.18;9.38;;;;;;;-142.25;100.00;58004.16;5056015;28;20595;-61
2021/09/08 03:44:30;;;;;;;12.70;9.43;;;;;;;-142.25;100.00;58004.16;5054593;28;20037;-58
2021/09/08 03:46:56;;;;;;;14.87;10.20;;;;;;;-142.25;100.00;58004.16;5054053;28;20150;-61
2021/09/08 03:49:21;;;;;;;12.25;9.15;;;;;;;-142.25;100.00;58004.16;5056322;28;20071;-60
2021/09/08 03:51:47;;;;;;;16.90;9.93;;;;;;;-142.25;100.00;58004.16;5052843;28;20086;-57
2021/09/08 03:54:12;;;;;;;11.85;10.13;;;;;;;-142.25;100.00;58004.16;5054232;28;20072;-59
2021/09/08 03:56:37;;;;;;;15.40;10.20;;;;;;;-142.25;100.00;58004.16;5054295;28;20107;-60
2021/09/08 03:59:03;;;;;;;16.40;10.30;;;;;;;-142.25;100.00;58004.16;5055170;28;20535;-56
2021/09/08 04:01:28;;;;;;;14.52;9.52;;;;;;;-142.25;100.00;58004.16;5056316;28;20494;-58
2021/09/08 04:03:54;;;;;;;14.38;10.23;;;;;;;-142.25;100.00;58004.16;5052613;28;20055;-60
2021/09/08 04:06:19;;;;;;;16.30;10.07;;;;;;;-142.25;100.00;58004.16;5056468;28;20033;-55
2021/09/08 04:08:45;;;;;;;12.87;9.47;;;;;;;-142.25;100.00;58004.16;5056236;28;20405;-59
2021/09/08 04:11:10;;;;;;;12.75;9.80;;;;;;;-142.25;100.00;58004.16;5055224;28;20033;-56
2021/09/08 04:13:36;;;;;;;13.80;10.00;;;;;;;-142.25;100.00;58004.16;5055225;28;20119;-56
2021/09/08 04:16:02;;;;;;;14.77;10.38;;;;;;;-142.25;100.00;58004.16;5053727;28;20518;-59
2021/09/08 04:18:27;;;;;;;15.35;10.13;;;;;;;-142.25;100.00;58004.16;5055334;28;20025;-59
2021/09/08 04:20:53;;;;;;;12.68;9.95;;;;;;;-142.25;100.00;58004.16;5054452;28;20069;-58
2021/09/08 04:23:18;;;;;;;13.98;10.48;;;;;;;-142.25;100.00;58004.16;5054440;28;20036;-57
2021/09/08 04:25:44;;;;;;;12.98;9.95;;;;;;;-142.25;100.00;58004.16;5053728;28;20024;-61
2021/09/08 04:28:09;;;;;;;15.73;11.13;;;;;;;-142.25;100.00;58004.16;5055386;28;20041;-59
2021/09/08 04:30:35;;;;;;;14.50;10.25;;;;;;;-142.25;100.00;58004.16;5052988;28;20078;-61
2021/09/08 04:33:00;;;;;;;13.43;9.85;;;;;;;-142.25;100.00;58004.16;5055012;28;20567;-61
2021/09/08 04:35:26;;;;;;;16.23;9.57;;;;;;;-142.25;100.00;58004.16;5053339;28;20047;-58
2021/09/08 04:37:51;;;;;;;15.45;10.50;;;;;;;-142.25;100.00;58004.16;5053068;28;20314;-55
2021/09/08 04:40:16;;;;;;;14.70;9.77;;;;;;;-142.25;100.00;58004.16;5053466;28;20079;-66
2021/09/08 04:42:42;;;;;;;14.40;10.30;;;;;;;-142.25;100.00;58004.16;5055748;28;20030;-58
2021/09/08 04:45:08;;;;;;;13.57;10.35;;;;;;;-142.25;100.00;58004.16;5053986;28;20538;-59
2021/09/08 04:47:34;;;;;;;17.33;10.15;;;;;;;-142.25;100.00;58004.16;5053826;28;20033;-59
2021/09/08 04:49:59;;;;;;;15.68;10.43;;;;;;;-142.25;100.00;58004.16;5057323;28;20448;-57
2021/09/08 04:52:25;;;;;;;15.48;10.18;;;;;;;-142.25;100.00;58004.16;5054851;28;20759;-57
2021/09/08 04:54:50;;;;;;;16.67;10.60;;;;;;;-142.25;100.00;58004.16;5054835;28;20551;-56
2021/09/08 04:57:15;;;;;;;13.90;10.23;;;;;;;-142.25;100.00;58004.16;5059529;28;20499;-56
2021/09/08 04:59:41;;;;;;;14.93;10.15;;;;;;;-142.25;100.00;58004.16;5053694;28;20033;-58
2021/09/08 05:02:06;;;;;;;14.32;10.73;;;;;;;-142.25;100.00;58004.16;5053905;28;20036;-54
2021/09/08 05:04:32;;;;;;;17.00;11.00;;;;;;;-142.25;100.00;58004.16;5052802;28;20752;-59
2021/09/08 05:06:59;;;;;;;17.42;10.60;;;;;;;-142.25;100.00;58004.16;5055078;28;20388;-61
2021/09/08 05:09:24;;;;;;;14.63;11.13;;;;;;;-142.25;100.00;58004.16;5055739;28;20097;-59
2021/09/08 05:11:49;;;;;;;21.58;11.70;;;;;;;-142.25;100.00;58004.16;5053843;28;20040;-60
2021/09/08 05:14:15;;;;;;;17.05;10.75;;;;;;;-142.25;100.00;58004.16;5053574;28;20037;-61
2021/09/08 05:16:40;;;;;;;15.02;10.23;;;;;;;-142.25;100.00;58004.16;5056407;28;20033;-60
2021/09/08 05:19:06;;;;;;;15.13;10.27;;;;;;;-142.25;100.00;58004.16;5056148;28;20036;-57
2021/09/08 05:21:32;;;;;;;14.02;9.27;;;;;;;-142.25;100.00;58004.16;5060417;28;20036;-59
2021/09/08 05:23:57;;;;;;;14.88;9.98;;;;;;;-142.25;100.00;58004.16;5061901;28;20067;-62
2021/09/08 05:26:23;;;;;;;17.17;11.75;;;;;;;-142.25;100.00;58004.16;5086820;28;20497;-59
2021/09/08 05:28:48;;;;;;;16.92;12.07;;;;;;;-142.25;100.00;58004.16;5054414;28;20036;-58
2021/09/08 05:31:14;;;;;;;18.73;11.80;;;;;;;-142.25;100.00;58004.16;5055307;28;20099;-60
2021/09/08 05:33:39;;;;;;;15.88;11.15;;;;;;;-142.25;100.00;58004.16;5053786;28;20032;-62
2021/09/08 05:36:05;;;;;;;15.90;11.55;;;;;;;-142.25;100.00;58004.16;5053903;28;20441;-60
2021/09/08 05:38:30;;;;;;;16.17;10.73;;;;;;;-142.25;100.00;58004.16;5060349;28;20366;-61
2021/09/08 05:40:55;;;;;;;14.82;10.15;;;;;;;-142.25;100.00;58004.16;5052844;28;20540;-60
2021/09/08 05:43:21;;;;;;;15.77;11.70;;;;;;;-142.25;100.00;58004.16;5051905;28;20109;-61
2021/09/08 05:45:46;;;;;;;13.30;10.02;;;;;;;-142.25;100.00;58004.16;5054018;28;20040;-61
2021/09/08 05:48:12;;;;;;;15.68;10.20;;;;;;;-142.25;100.00;58004.16;5052681;28;20166;-61
2021/09/08 05:50:37;;;;;;;15.50;11.27;;;;;;;-142.25;100.00;58004.16;5052850;28;20037;-58
2021/09/08 05:53:03;;;;;;;17.05;11.02;;;;;;;-142.25;100.00;58004.16;5052222;28;20200;-60
2021/09/08 05:55:31;;;;;;;12.75;9.38;;;;;;;-142.25;100.00;58004.16;5052672;28;20040;-59
2021/09/08 05:57:57;;;;;;;12.80;9.65;;;;;;;-142.25;100.00;58004.16;5051497;28;20143;-58
2021/09/08 06:00:22;;;;;;;15.40;10.18;;;;;;;-142.25;100.00;58004.16;5054353;28;20035;-60
2021/09/08 06:02:48;;;;;;;11.73;9.63;;;;;;;-142.25;100.00;58004.16;5053500;28;20155;-60
2021/09/08 06:05:13;;;;;;;14.32;9.82;;;;;;;-142.25;100.00;58004.16;5051159;28;20048;-60
2021/09/08 06:07:39;;;;;;;13.23;10.27;;;;;;;-142.25;100.00;58004.16;5052795;28;20064;-61
2021/09/08 06:10:06;;;;;;;15.73;9.13;;;;;;;-142.25;100.00;58004.16;5050597;28;20086;-59
2021/09/08 06:12:31;;;;;;;12.68;9.25;;;;;;;-142.25;100.00;58004.16;5050053;28;20047;-59
2021/09/08 06:14:57;;;;;;;13.07;9.27;;;;;;;-142.25;100.00;58004.16;5052973;28;20020;-61
2021/09/08 06:17:22;;;;;;;19.40;11.55;;;;;;;-142.25;100.00;58004.16;5053461;28;20060;-61
2021/09/08 06:19:48;;;;;;;13.93;10.18;;;;;;;-142.25;100.00;58004.16;5053080;28;20036;-60
2021/09/08 06:22:13;;;;;;;12.05;9.55;;;;;;;-142.25;100.00;58004.16;5054902;28;20615;-58
2021/09/08 06:24:39;;;;;;;13.80;9.48;;;;;;;-142.25;100.00;58004.16;5053893;28;20070;-60
2021/09/08 06:27:05;;;;;;;15.95;8.50;;;;;;;-142.25;100.00;58004.16;5053408;28;20141;-58
2021/09/08 06:29:30;;;;;;;11.73;9.43;;;;;;;-142.25;100.00;58004.16;5051916;28;20393;-59
2021/09/08 06:31:55;;;;;;;12.23;9.55;;;;;;;-142.25;100.00;58004.16;5052783;28;20122;-57
2021/09/08 06:34:21;;;;;;;15.73;9.77;;;;;;;-142.25;100.00;58004.16;5051262;28;20035;-60
2021/09/08 06:36:46;;;;;;;15.68;10.15;;;;;;;-142.25;100.00;58004.16;5053694;28;20522;-61
2021/09/08 06:39:12;;;;;;;14.27;9.60;;;;;;;-142.25;100.00;58004.16;5052126;28;20388;-60
2021/09/08 06:41:38;;;;;;;12.95;10.07;;;;;;;-142.25;100.00;58004.16;5055363;28;20032;-61
2021/09/08 06:44:03;;;;;;;14.27;9.38;;;;;;;-142.25;100.00;58004.16;5055128;28;20072;-59
2021/09/08 06:46:29;;;;;;;15.35;9.63;;;;;;;-142.25;100.00;58004.16;5053038;28;20025;-59
2021/09/08 06:48:55;;;;;;;17.27;10.23;;;;;;;-142.25;100.00;58004.16;5051495;28;20035;-57
2021/09/08 06:51:20;;;;;;;13.82;9.27;;;;;;;-142.25;100.00;58004.16;5053117;28;20036;-59
2021/09/08 06:53:46;;;;;;;14.95;9.52;;;;;;;-142.25;100.00;58004.16;5086717;28;20361;-59
2021/09/08 06:56:11;;;;;;;19.40;9.75;;;;;;;-142.25;100.00;58004.16;5053116;28;20515;-60
2021/09/08 06:58:37;;;;;;;19.83;10.13;;;;;;;-142.25;100.00;58004.16;5053112;28;20033;-61
2021/09/08 07:01:02;;;;;;;17.50;11.07;;;;;;;-142.25;100.00;58004.16;5051782;28;20033;-60
2021/09/08 07:03:28;;;;;;;22.38;10.95;;;;;;;-142.25;100.00;58004.16;5056053;28;20036;-60
2021/09/08 07:05:53;;;;;;;20.27;13.07;;;;;;;-142.25;100.00;58004.16;5056897;28;20112;-62
2021/09/08 07:08:19;;;;;;;25.75;11.05;;;;;;;-142.25;100.00;58004.16;5055770;28;20083;-60
2021/09/08 07:10:44;;;;;;;15.18;9.55;;;;;;;-142.25;100.00;58004.16;5058128;28;20495;-59
2021/09/08 07:13:10;;;;;;;16.02;9.77;;;;;;;-142.25;100.00;58004.16;5056193;28;20481;-64
2021/09/08 07:15:35;;;;;;;14.80;9.20;;;;;;;-142.25;100.00;58004.16;5055171;28;20044;-55
2021/09/08 07:18:01;;;;;;;17.25;9.60;;;;;;;-142.25;100.00;58004.16;5055222;28;20051;-58
2021/09/08 07:20:27;;;;;;;20.13;10.15;;;;;;;-142.25;100.00;58004.16;5055053;28;20025;-57
2021/09/08 07:22:52;;;;;;;19.90;10.68;;;;;;;-142.25;100.00;58004.16;5054289;28;20033;-56
2021/09/08 07:25:18;;;;;;;17.70;10.20;;;;;;;-142.25;100.00;58004.16;5056407;28;20116;-58
2021/09/08 07:27:44;;;;;;;22.85;10.05;;;;;;;-142.25;100.00;58004.16;5054795;28;20032;-57
2021/09/08 07:30:09;;;;;;;13.77;8.77;;;;;;;-142.25;100.00;58004.16;5056618;28;20084;-59
2021/09/08 07:32:35;;;;;;;22.45;10.88;;;;;;;-142.25;100.00;58004.16;5056191;28;20037;-58
2021/09/08 07:35:01;;;;;;;14.75;9.90;;;;;;;-142.25;100.00;58004.16;5056218;28;20090;-58
2021/09/08 07:37:27;;;;;;;15.25;9.68;;;;;;;-142.25;100.00;58004.16;5087955;28;20059;-60
2021/09/08 07:39:52;;;;;;;17.83;10.13;;;;;;;-142.25;100.00;58004.16;5056122;28;20106;-59
2021/09/08 07:42:18;;;;;;;21.05;9.90;;;;;;;-142.25;100.00;58004.16;5055869;28;20025;-54
2021/09/08 07:44:43;;;;;;;22.50;9.23;;;;;;;-142.25;100.00;58004.16;5055021;28;20033;-59
2021/09/08 07:47:10;;;;;;;18.90;9.30;;;;;;;-142.25;100.00;58004.16;5053970;28;20041;-58
2021/09/08 07:49:35;;;;;;;22.85;10.35;;;;;;;-142.25;100.00;58004.16;5056450;28;20040;-55
2021/09/08 07:52:01;;;;;;;24.10;10.75;;;;;;;-142.25;100.00;58004.16;5069103;28;20086;-57
2021/09/08 07:54:27;;;;;;;20.83;9.75;;;;;;;-142.25;100.00;58004.16;5058474;28;20033;-55
2021/09/08 07:56:53;;;;;;;20.75;9.90;;;;;;;-142.25;100.00;58004.16;5055537;28;20040;-57
2021/09/08 07:59:18;;;;;;;15.75;9.70;;;;;;;-142.25;100.00;58004.16;5055009;28;20060;-60
2021/09/08 08:01:44;;;;;;;17.58;8.82;;;;;;;-142.25;100.00;58004.16;5056019;28;20075;-57
2021/09/08 08:04:10;;;;;;;24.70;10.52;;;;;;;-142.25;100.00;58004.16;5053629;28;20037;-59
2021/09/08 08:06:37;;;;;;;18.27;9.27;;;;;;;-142.25;100.00;58004.16;5056547;28;20045;-61
2021/09/08 08:09:03;;;;;;;16.60;10.05;;;;;;;-142.25;100.00;58004.16;5057315;28;20029;-64
2021/09/08 08:11:28;;;;;;;13.05;9.57;;;;;;;-142.25;100.00;58004.16;5054356;28;20037;-60
2021/09/08 08:13:54;;;;;;;19.20;10.82;;;;;;;-142.25;100.00;58004.16;5055478;28;20032;-60
2021/09/08 08:16:19;;;;;;;14.90;8.70;;;;;;;-142.25;100.00;58004.16;5055733;28;20457;-62
2021/09/08 08:18:44;;;;;;;18.92;9.90;;;;;;;-142.25;100.00;58004.16;5057717;28;20049;-62
2021/09/08 08:21:10;;;;;;;18.17;9.55;;;;;;;-142.25;100.00;58004.16;5055511;28;20353;-59
2021/09/08 08:23:35;;;;;;;21.42;9.80;;;;;;;-142.25;100.00;58004.16;5054618;28;20443;-61
2021/09/08 08:26:02;;;;;;;16.30;9.32;;;;;;;-142.25;100.00;58004.16;5054071;28;20136;-62
2021/09/08 08:28:27;;;;;;;20.45;9.02;;;;;;;-142.25;100.00;58004.16;5054250;28;20171;-59
2021/09/08 08:30:54;;;;;;;21.63;9.93;;;;;;;-142.25;100.00;58004.16;5055219;28;20029;-62
2021/09/08 08:33:19;;;;;;;22.15;9.65;;;;;;;-142.25;100.00;58004.16;5054290;28;20028;-62
2021/09/08 08:35:45;;;;;;;17.80;9.50;;;;;;;-142.25;100.00;58004.16;5054413;28;20503;-62
2021/09/08 08:38:10;;;;;;;16.80;9.00;;;;;;;-142.25;100.00;58004.16;5052987;28;20040;-61
2021/09/08 08:40:35;;;;;;;21.45;11.88;;;;;;;-142.25;100.00;58004.16;5055084;28;20048;-61
2021/09/08 08:43:01;;;;;;;16.67;9.73;;;;;;;-142.25;100.00;58004.16;5054533;28;20056;-60
2021/09/08 08:45:29;;;;;;;16.40;9.65;;;;;;;-142.25;100.00;58004.16;5056555;28;20044;-60
2021/09/08 08:47:55;;;;;;;13.35;8.88;;;;;;;-142.25;100.00;58004.16;5055343;28;20028;-59
2021/09/08 08:50:23;;;;;;;18.95;10.02;;;;;;;-142.25;100.00;58004.16;5055687;28;20043;-62
2021/09/08 08:52:49;;;;;;;14.38;8.35;;;;;;;-142.25;100.00;58004.16;5057294;28;20451;-62
2021/09/08 08:55:15;;;;;;;11.73;7.80;;;;;;;-142.25;100.00;58004.16;5053226;28;20079;-61
2021/09/08 08:57:40;;;;;;;16.65;8.80;;;;;;;-142.25;100.00;58004.16;5054138;28;20033;-62
2021/09/08 09:00:07;;;;;;;12.43;8.32;;;;;;;-142.25;100.00;58004.16;5053449;28;20056;-62
2021/09/08 09:02:33;;;;;;;12.93;7.88;;;;;;;-142.25;100.00;58004.16;5053579;28;20440;-61
2021/09/08 09:05:01;;;;;;;14.20;9.70;;;;;;;-142.25;100.00;58004.16;5085991;28;20064;-61
2021/09/08 09:07:43;;;;;;;12.90;8.32;;;;;;;-142.25;100.00;58004.16;5055619;28;20033;-60
2021/09/08 09:10:12;;;;;;;14.98;8.10;;;;;;;-142.25;100.00;58004.16;5054094;28;20056;-61
2021/09/08 09:12:40;;;;;;;10.82;7.43;;;;;;;-142.25;100.00;58004.16;5053851;28;20029;-58
2021/09/08 09:15:09;;;;;;;12.27;7.88;;;;;;;-142.25;100.00;58004.16;5053958;28;20043;-62
2021/09/08 09:17:36;;;;;;;7.72;6.95;;;;;;;-142.25;100.00;58004.16;5053551;28;20186;-61
2021/09/08 09:20:12;;;;;;;9.95;7.40;;;;;;;-142.25;100.00;58004.16;5052727;28;20040;-58
2021/09/08 09:22:39;;;;;;;15.15;8.00;;;;;;;-142.25;100.00;58004.16;5053317;28;20558;-60
2021/09/08 09:25:06;;;;;;;11.18;6.65;;;;;;;-142.25;100.00;58004.16;5052916;28;20035;-61
2021/09/08 09:27:34;;;;;;;10.55;6.22;;;;;;;-142.25;100.00;58004.16;5055725;28;20037;-62
2021/09/08 09:30:09;;;;;;;8.50;6.80;;;;;;;-142.25;100.00;58004.16;5051926;28;20072;-59
2021/09/08 09:32:36;;;;;;;13.20;6.78;;;;;;;-142.25;100.00;58004.16;5053874;28;20111;-63
2021/09/08 09:35:01;;;;;;;9.45;5.90;;;;;;;-142.25;100.00;58004.16;5052798;28;20037;-60
2021/09/08 09:37:31;;;;;;;7.80;6.88;;;;;;;-142.25;100.00;58004.16;5053203;28;20036;-58
2021/09/08 09:40:01;;;;;;;11.02;7.28;;;;;;;-142.25;100.00;58004.16;5053806;28;20521;-61
2021/09/08 09:42:31;;;;;;;12.70;7.45;;;;;;;-142.25;100.00;58004.16;5054255;28;20033;-61
2021/09/08 09:45:03;;;;;;;10.65;6.55;;;;;;;-142.25;100.00;58004.16;5049927;28;20485;-59
2021/09/08 09:47:33;;;;;;;14.55;7.72;;;;;;;-142.25;100.00;58004.16;5049455;28;20465;-60
2021/09/08 09:49:59;;;;;;;12.27;6.32;;;;;;;-142.25;100.00;58004.16;5052796;28;20032;-61
2021/09/08 09:52:24;;;;;;;13.82;7.18;;;;;;;-142.25;100.00;58004.16;5054132;28;20474;-61
2021/09/08 09:54:51;;;;;;;13.90;6.40;;;;;;;-142.25;100.00;58004.16;5053469;28;20056;-65
2021/09/08 09:57:18;;;;;;;8.75;6.32;;;;;;;-142.25;100.00;58004.16;5052591;28;20037;-58
2021/09/08 09:59:43;;;;;;;10.68;6.13;;;;;;;-142.25;100.00;58004.16;5054212;28;20084;-60
2021/09/08 10:02:09;;;;;;;15.05;7.20;;;;;;;-142.25;100.00;58004.16;5052780;28;20439;-58
2021/09/08 10:04:35;;;;;;;8.32;6.55;;;;;;;-142.25;100.00;58004.16;5052667;28;20425;-59
2021/09/08 10:07:04;;;;;;;11.93;7.45;;;;;;;-142.25;100.00;58004.16;5064497;28;20172;-55
2021/09/08 10:09:32;;;;;;;12.80;6.50;;;;;;;-142.25;100.00;58004.16;5055995;28;20032;-56
2021/09/08 10:12:00;;;;;;;9.60;6.05;;;;;;;-142.25;100.00;58004.16;5052398;28;20033;-60
2021/09/08 10:14:28;;;;;;;5.97;5.03;;;;;;;-142.25;100.00;58004.16;5050321;28;20460;-59
2021/09/08 10:16:54;;;;;;;6.70;5.53;;;;;;;-142.25;100.00;58004.16;5051600;28;20039;-59
2021/09/08 10:19:25;;;;;;;7.95;5.90;;;;;;;-142.25;100.00;58004.16;5051741;28;20037;-57
2021/09/08 10:21:52;;;;;;;8.13;5.47;;;;;;;-142.25;100.00;58004.16;5052069;28;20034;-59
2021/09/08 10:24:19;;;;;;;14.23;5.28;;;;;;;-142.25;100.00;58004.16;5050334;28;20039;-56
2021/09/08 10:26:46;;;;;;;8.23;5.72;;;;;;;-142.25;100.00;58004.16;5055003;28;20032;-59
2021/09/08 10:29:14;;;;;;;9.02;5.45;;;;;;;-142.25;100.00;58004.16;5052631;28;20039;-55
2021/09/08 10:31:50;;;;;;;8.02;5.43;;;;;;;-142.25;100.00;58004.16;5051073;28;20174;-60
2021/09/08 10:34:16;;;;;;;6.55;5.93;;;;;;;-142.25;100.00;58004.16;5051125;28;20043;-60
2021/09/08 10:36:43;;;;;;;5.65;5.15;;;;;;;-142.25;100.00;58004.16;5049314;28;20127;-61
2021/09/08 10:39:15;;;;;;;10.32;6.10;;;;;;;-142.25;100.00;58004.16;5050695;28;20037;-59
2021/09/08 10:41:46;;;;;;;9.60;5.55;;;;;;;-142.25;100.00;58004.16;5051550;28;20032;-61
2021/09/08 10:44:13;;;;;;;6.75;5.90;;;;;;;-142.25;100.00;58004.16;5052125;28;20025;-62
2021/09/08 10:46:52;;;;;;;7.00;5.72;;;;;;;-142.25;100.00;58004.16;5050238;28;20036;-62
2021/09/08 10:49:36;;;;;;;6.68;6.07;;;;;;;-142.25;100.00;58004.16;5052469;28;20043;-63
2021/09/08 10:52:04;;;;;;;8.30;5.97;;;;;;;-142.25;100.00;58004.16;5052495;28;20024;-61
2021/09/08 10:54:29;;;;;;;5.63;5.15;;;;;;;-142.25;100.00;58004.16;5050922;28;20046;-61